Time;durP1;ratioP1;P1;durP2;ratioP2;P2;SDS_P1;SDS_P2;PMS_P1;PMS_P2;Temp;Humidity;BMP_temperature;BMP_pressure;BME280_temperature;BME280_humidity;BME280_pressure;Samples;Min_cycle;Max_cycle;Signal;HPM_P1;HPM_P2
2023/05/08 00:00:24;;;;;;;0.15;0.15;;;12.70;99.90;;;;;;4969781;28;20236;-87
2023/05/08 00:02:50;;;;;;;0.20;0.20;;;12.70;99.90;;;;;;4986835;28;20435;-84
2023/05/08 00:05:16;;;;;;;0.20;0.20;;;12.60;99.90;;;;;;4980346;28;21593;-84
2023/05/08 00:07:42;;;;;;;0.10;0.10;;;12.60;99.90;;;;;;4966212;28;20102;-84
2023/05/08 00:10:08;;;;;;;0.20;0.20;;;12.60;99.90;;;;;;4971611;28;20105;-85
2023/05/08 00:12:35;;;;;;;0.20;0.20;;;12.60;99.90;;;;;;4976324;28;20042;-85
2023/05/08 00:15:01;;;;;;;0.20;0.20;;;12.50;99.90;;;;;;4962929;28;20039;-84
2023/05/08 00:17:26;;;;;;;0.10;0.10;;;12.50;99.90;;;;;;4986630;28;20049;-86
2023/05/08 00:19:52;;;;;;;0.20;0.20;;;12.50;99.90;;;;;;4960587;28;20125;-85
2023/05/08 00:22:21;;;;;;;0.10;0.10;;;12.50;99.90;;;;;;4980721;28;20070;-84
2023/05/08 00:24:50;;;;;;;0.10;0.10;;;12.50;99.90;;;;;;4995317;28;20510;-84
2023/05/08 00:27:18;;;;;;;0.10;0.10;;;12.50;99.90;;;;;;4940897;28;20074;-84
2023/05/08 00:29:44;;;;;;;0.20;0.20;;;12.40;99.90;;;;;;4963777;28;20055;-84
2023/05/08 00:32:09;;;;;;;0.10;0.10;;;12.40;99.90;;;;;;4967557;28;20043;-83
2023/05/08 00:34:37;;;;;;;0.10;0.10;;;12.30;99.90;;;;;;4985283;28;20034;-84
2023/05/08 00:37:03;;;;;;;0.10;0.10;;;12.40;99.90;;;;;;4958517;28;20053;-84
2023/05/08 00:39:28;;;;;;;0.17;0.17;;;12.40;99.90;;;;;;4959360;28;20046;-87
2023/05/08 00:41:55;;;;;;;0.20;0.20;;;12.40;99.90;;;;;;4962896;28;20051;-84
2023/05/08 00:44:20;;;;;;;0.10;0.10;;;12.30;99.90;;;;;;4971040;28;20482;-84
2023/05/08 00:46:47;;;;;;;0.10;0.10;;;12.30;99.90;;;;;;4977468;28;20437;-84
2023/05/08 00:49:14;;;;;;;0.20;0.20;;;12.30;99.90;;;;;;4956513;28;20648;-86
2023/05/08 00:51:42;;;;;;;0.10;0.10;;;12.20;99.90;;;;;;4962490;28;20097;-83
2023/05/08 00:54:08;;;;;;;0.10;0.10;;;12.30;99.90;;;;;;4981734;28;20061;-85
2023/05/08 00:56:36;;;;;;;0.10;0.10;;;12.20;99.90;;;;;;4960386;28;20038;-84
2023/05/08 00:59:03;;;;;;;0.20;0.20;;;12.20;99.90;;;;;;4970714;28;20046;-84
2023/05/08 01:01:29;;;;;;;0.20;0.20;;;12.20;99.90;;;;;;5001646;28;20143;-84
2023/05/08 01:03:55;;;;;;;0.15;0.15;;;12.20;99.90;;;;;;4973561;28;20388;-84
2023/05/08 01:06:22;;;;;;;0.13;0.13;;;12.20;99.90;;;;;;4964633;28;20046;-84
2023/05/08 01:08:47;;;;;;;0.20;0.20;;;12.10;99.90;;;;;;4956936;28;20111;-84
2023/05/08 01:11:33;;;;;;;0.10;0.10;;;12.10;99.90;;;;;;4956627;28;20487;-84
2023/05/08 01:14:18;;;;;;;0.20;0.20;;;12.10;99.90;;;;;;4968746;28;20050;-85
2023/05/08 01:17:07;;;;;;;0.10;0.10;;;12.00;99.90;;;;;;4991476;28;20043;-84
2023/05/08 01:19:52;;;;;;;0.10;0.10;;;12.00;99.90;;;;;;4973516;28;20081;-83
2023/05/08 01:22:24;;;;;;;0.20;0.20;;;12.00;99.90;;;;;;4991420;28;20042;-86
2023/05/08 01:25:25;;;;;;;0.20;0.20;;;12.00;99.90;;;;;;4955197;28;20104;-84
2023/05/08 01:28:22;;;;;;;0.20;0.20;;;11.90;99.90;;;;;;4909830;29;20051;-83
2023/05/08 01:31:25;;;;;;;0.20;0.20;;;12.00;99.90;;;;;;4976168;28;20145;-84
2023/05/08 01:34:15;;;;;;;0.20;0.20;;;11.90;99.90;;;;;;4936636;29;20048;-84
2023/05/08 01:37:00;;;;;;;0.20;0.20;;;11.90;99.90;;;;;;4968029;28;20513;-83
2023/05/08 01:39:43;;;;;;;0.20;0.20;;;11.90;99.90;;;;;;4971197;28;20049;-84
2023/05/08 01:42:27;;;;;;;0.10;0.10;;;11.80;99.90;;;;;;4993326;28;20033;-84
2023/05/08 01:44:58;;;;;;;0.20;0.20;;;11.80;99.90;;;;;;4937003;29;20043;-84
2023/05/08 01:47:29;;;;;;;0.20;0.20;;;11.80;99.90;;;;;;4991367;28;20040;-86
2023/05/08 01:50:04;;;;;;;0.15;0.15;;;11.80;99.90;;;;;;4988107;28;20070;-85
2023/05/08 01:52:52;;;;;;;0.15;0.15;;;11.70;99.90;;;;;;4977808;28;20423;-84
2023/05/08 01:55:35;;;;;;;0.20;0.20;;;11.70;99.90;;;;;;4964109;28;20040;-86
2023/05/08 01:58:06;;;;;;;0.20;0.20;;;11.70;99.90;;;;;;4951003;28;20046;-84
2023/05/08 02:00:31;;;;;;;0.20;0.20;;;11.70;99.90;;;;;;4959742;28;20046;-87
2023/05/08 02:02:58;;;;;;;0.20;0.20;;;11.60;99.90;;;;;;4960483;28;20114;-84
2023/05/08 02:05:26;;;;;;;0.15;0.15;;;11.70;99.90;;;;;;4961805;28;20110;-85
2023/05/08 02:07:53;;;;;;;0.13;0.13;;;11.60;99.90;;;;;;4975027;28;20125;-85
2023/05/08 02:10:20;;;;;;;0.20;0.20;;;11.60;99.90;;;;;;4965261;28;20058;-84
2023/05/08 02:12:48;;;;;;;0.15;0.15;;;11.60;99.90;;;;;;4965828;28;20101;-84
2023/05/08 02:15:16;;;;;;;0.10;0.10;;;11.60;99.90;;;;;;4956728;28;20050;-84
2023/05/08 02:17:48;;;;;;;0.20;0.20;;;11.60;99.90;;;;;;4972861;28;20531;-84
2023/05/08 02:20:14;;;;;;;0.10;0.10;;;11.60;99.90;;;;;;4982029;28;20038;-83
2023/05/08 02:22:47;;;;;;;0.20;0.20;;;11.50;99.90;;;;;;4972618;28;20448;-84
2023/05/08 02:25:17;;;;;;;0.20;0.20;;;11.60;99.90;;;;;;4971845;28;20487;-84
2023/05/08 02:27:46;;;;;;;0.17;0.17;;;11.50;99.90;;;;;;5000964;28;20058;-84
2023/05/08 02:30:15;;;;;;;0.20;0.20;;;11.60;99.90;;;;;;4993782;28;20042;-84
2023/05/08 02:32:46;;;;;;;0.20;0.20;;;11.50;99.90;;;;;;5003687;28;20494;-84
2023/05/08 02:35:14;;;;;;;0.10;0.10;;;11.50;99.90;;;;;;4987101;28;20066;-84
2023/05/08 02:37:44;;;;;;;0.10;0.10;;;11.50;99.90;;;;;;4982434;28;20037;-84
2023/05/08 02:40:12;;;;;;;0.10;0.10;;;11.50;99.90;;;;;;4989801;28;20046;-85
2023/05/08 02:42:39;;;;;;;0.20;0.20;;;11.40;99.90;;;;;;4998332;28;20038;-84
2023/05/08 02:45:06;;;;;;;0.10;0.10;;;11.40;99.90;;;;;;4987110;28;20080;-85
2023/05/08 02:47:58;;;;;;;0.20;0.20;;;11.40;99.90;;;;;;4986695;28;20453;-84
2023/05/08 02:50:34;;;;;;;0.17;0.17;;;11.40;99.90;;;;;;4971046;28;20052;-83
2023/05/08 02:53:07;;;;;;;0.17;0.17;;;11.40;99.90;;;;;;5007921;28;20042;-84
2023/05/08 02:55:38;;;;;;;0.20;0.20;;;11.40;99.90;;;;;;5005987;28;20414;-84
2023/05/08 02:58:37;;;;;;;0.20;0.20;;;11.40;99.90;;;;;;4974624;28;20053;-83
2023/05/08 03:01:10;;;;;;;0.20;0.20;;;11.40;99.90;;;;;;4995798;28;20070;-84
2023/05/08 03:03:44;;;;;;;0.10;0.10;;;11.40;99.90;;;;;;4973539;28;20046;-84
2023/05/08 03:06:18;;;;;;;0.10;0.10;;;11.30;99.90;;;;;;5002205;28;20042;-83
2023/05/08 03:08:46;;;;;;;0.10;0.10;;;11.30;99.90;;;;;;4977122;28;20042;-84
2023/05/08 03:11:18;;;;;;;0.20;0.20;;;11.30;99.90;;;;;;4975824;28;20756;-83
2023/05/08 03:13:46;;;;;;;0.20;0.20;;;11.30;99.90;;;;;;5002002;28;20046;-84
2023/05/08 03:16:19;;;;;;;0.20;0.20;;;11.20;99.90;;;;;;5008461;28;20041;-84
2023/05/08 03:18:48;;;;;;;0.10;0.10;;;11.30;99.90;;;;;;5007048;28;20128;-83
2023/05/08 03:21:18;;;;;;;0.20;0.20;;;11.20;99.90;;;;;;5000565;28;20034;-84
2023/05/08 03:23:50;;;;;;;0.20;0.20;;;11.20;99.90;;;;;;4993048;28;20053;-83
2023/05/08 03:26:20;;;;;;;0.13;0.13;;;11.20;99.90;;;;;;4974365;28;20129;-84
2023/05/08 03:28:50;;;;;;;0.20;0.20;;;11.20;99.90;;;;;;4954057;28;20376;-84
2023/05/08 03:31:20;;;;;;;0.20;0.20;;;11.20;99.90;;;;;;4983861;28;20125;-84
2023/05/08 03:33:47;;;;;;;0.20;0.20;;;11.20;99.90;;;;;;4961564;28;20063;-83
2023/05/08 03:36:14;;;;;;;0.10;0.10;;;11.20;99.90;;;;;;4966791;28;20038;-84
2023/05/08 03:38:40;;;;;;;0.10;0.10;;;11.10;99.90;;;;;;4995813;28;20037;-86
2023/05/08 03:41:06;;;;;;;0.20;0.20;;;11.10;99.90;;;;;;4989123;28;20051;-84
2023/05/08 03:43:32;;;;;;;0.20;0.20;;;11.10;99.90;;;;;;4974259;28;20388;-84
2023/05/08 03:45:59;;;;;;;0.10;0.10;;;11.20;99.90;;;;;;4953158;28;20570;-84
2023/05/08 03:48:26;;;;;;;0.17;0.17;;;11.00;99.90;;;;;;4976540;28;20045;-85
2023/05/08 03:50:52;;;;;;;0.10;0.10;;;11.00;99.90;;;;;;4956279;28;20058;-85
2023/05/08 03:53:18;;;;;;;0.40;0.40;;;11.00;99.90;;;;;;4983401;28;20050;-84
2023/05/08 03:55:44;;;;;;;0.20;0.20;;;11.20;99.90;;;;;;4974639;28;20044;-84
2023/05/08 03:58:51;;;;;;;0.20;0.20;;;11.10;99.90;;;;;;4959716;28;20046;-84
2023/05/08 04:01:26;;;;;;;0.20;0.20;;;11.00;99.90;;;;;;4945521;28;20087;-84
2023/05/08 04:04:16;;;;;;;0.10;0.10;;;10.90;99.90;;;;;;4954674;28;20042;-84
2023/05/08 04:07:09;;;;;;;0.10;0.10;;;10.90;99.90;;;;;;4975626;28;20089;-84
2023/05/08 04:09:42;;;;;;;0.20;0.20;;;10.90;99.90;;;;;;4961115;28;20042;-84
2023/05/08 04:12:17;;;;;;;0.20;0.20;;;10.90;99.90;;;;;;4958229;28;20039;-85
2023/05/08 04:14:56;;;;;;;0.20;0.20;;;10.90;99.90;;;;;;4958320;28;20097;-84
2023/05/08 04:17:33;;;;;;;0.20;0.20;;;10.80;99.90;;;;;;4984812;28;20042;-83
2023/05/08 04:20:03;;;;;;;0.10;0.10;;;10.90;99.90;;;;;;4969054;28;20058;-85
2023/05/08 04:22:31;;;;;;;0.17;0.17;;;10.90;99.90;;;;;;4979219;28;20053;-84
2023/05/08 04:25:01;;;;;;;0.20;0.20;;;10.90;99.90;;;;;;4978649;28;20050;-85
2023/05/08 04:27:28;;;;;;;0.10;0.10;;;10.90;99.90;;;;;;4983662;28;20450;-84
2023/05/08 04:29:57;;;;;;;0.20;0.20;;;10.90;99.90;;;;;;5008465;28;20142;-84
2023/05/08 04:32:24;;;;;;;0.20;0.20;;;10.80;99.90;;;;;;4998373;28;20116;-84
2023/05/08 04:34:50;;;;;;;0.20;0.20;;;10.90;99.90;;;;;;4994121;28;20042;-84
2023/05/08 04:37:32;;;;;;;0.10;0.10;;;10.90;99.90;;;;;;4994932;28;20042;-85
2023/05/08 04:39:58;;;;;;;0.20;0.20;;;10.90;99.90;;;;;;4996192;28;20157;-86
2023/05/08 04:42:27;;;;;;;0.10;0.10;;;10.90;99.90;;;;;;4976700;28;20038;-84
2023/05/08 04:44:53;;;;;;;0.10;0.10;;;10.80;99.90;;;;;;4996901;28;20389;-83
2023/05/08 04:47:19;;;;;;;0.20;0.20;;;10.90;99.90;;;;;;5011413;28;20046;-84
2023/05/08 04:49:45;;;;;;;0.20;0.20;;;10.80;99.90;;;;;;4995181;28;20069;-84
2023/05/08 04:52:11;;;;;;;0.10;0.10;;;10.90;99.90;;;;;;5012612;28;20157;-83
2023/05/08 04:54:36;;;;;;;0.10;0.10;;;10.90;99.90;;;;;;5008415;28;20088;-83
2023/05/08 04:57:02;;;;;;;0.20;0.20;;;10.90;99.90;;;;;;5012241;28;20042;-85
2023/05/08 04:59:28;;;;;;;0.20;0.20;;;10.90;99.90;;;;;;4987080;28;20042;-83
2023/05/08 05:01:55;;;;;;;0.20;0.20;;;10.90;99.90;;;;;;4988264;28;20110;-84
2023/05/08 05:04:21;;;;;;;0.10;0.10;;;10.90;99.90;;;;;;5012593;28;20041;-84
2023/05/08 05:06:47;;;;;;;0.10;0.10;;;10.90;99.90;;;;;;4994882;28;20045;-85
2023/05/08 05:09:13;;;;;;;0.20;0.20;;;10.90;99.90;;;;;;4995982;28;20049;-84
2023/05/08 05:11:39;;;;;;;0.20;0.20;;;11.10;99.90;;;;;;4995683;28;20113;-83
2023/05/08 05:14:06;;;;;;;0.10;0.10;;;10.90;99.90;;;;;;4977616;28;20149;-85
2023/05/08 05:16:34;;;;;;;0.20;0.20;;;11.10;99.90;;;;;;4998437;28;20041;-87
2023/05/08 05:19:00;;;;;;;0.20;0.20;;;11.10;99.90;;;;;;4999973;28;20050;-83
2023/05/08 05:21:26;;;;;;;0.10;0.10;;;11.20;99.90;;;;;;4983425;28;20046;-86
2023/05/08 05:23:52;;;;;;;0.17;0.17;;;11.20;99.90;;;;;;4982025;28;20057;-85
2023/05/08 05:26:18;;;;;;;0.10;0.10;;;11.10;99.90;;;;;;4988839;28;20403;-84
2023/05/08 05:28:43;;;;;;;0.13;0.13;;;11.20;99.90;;;;;;4974791;28;20042;-86
2023/05/08 05:31:09;;;;;;;0.17;0.17;;;11.20;99.90;;;;;;4985965;28;20050;-86
2023/05/08 05:33:35;;;;;;;0.10;0.10;;;11.20;99.90;;;;;;4965879;28;20049;-85
2023/05/08 05:36:01;;;;;;;0.10;0.10;;;11.20;99.90;;;;;;4975734;28;20130;-85
2023/05/08 05:38:27;;;;;;;0.10;0.10;;;11.20;99.90;;;;;;4989572;28;20054;-86
2023/05/08 05:40:52;;;;;;;0.10;0.10;;;11.30;99.90;;;;;;4996348;28;20050;-85
2023/05/08 05:43:18;;;;;;;0.20;0.20;;;11.30;99.90;;;;;;4993495;28;20156;-87
2023/05/08 05:45:44;;;;;;;0.20;0.20;;;11.30;99.90;;;;;;4993039;28;20038;-86
2023/05/08 05:48:10;;;;;;;0.20;0.20;;;11.30;99.90;;;;;;4994077;28;20042;-86
2023/05/08 05:50:36;;;;;;;0.10;0.10;;;11.40;99.90;;;;;;4975579;28;20050;-87
2023/05/08 05:53:02;;;;;;;0.17;0.17;;;11.40;99.90;;;;;;4971824;28;20110;-87
2023/05/08 05:55:28;;;;;;;0.10;0.10;;;11.50;99.90;;;;;;4956804;28;20482;-84
2023/05/08 05:57:54;;;;;;;0.10;0.10;;;11.50;99.90;;;;;;4959048;28;20133;-87
2023/05/08 06:00:20;;;;;;;0.20;0.20;;;11.50;99.90;;;;;;4954647;28;20112;-85
2023/05/08 06:02:46;;;;;;;0.20;0.20;;;11.50;99.90;;;;;;4960578;28;20046;-84
2023/05/08 06:05:12;;;;;;;0.20;0.20;;;11.60;99.90;;;;;;4967468;28;20490;-87
2023/05/08 06:07:38;;;;;;;0.20;0.20;;;11.60;99.90;;;;;;4970309;28;20065;-85
2023/05/08 06:10:04;;;;;;;0.20;0.20;;;11.70;99.90;;;;;;4979510;28;20522;-85
2023/05/08 06:12:30;;;;;;;0.20;0.20;;;11.70;99.90;;;;;;4955266;28;20121;-86
2023/05/08 06:14:56;;;;;;;0.20;0.20;;;11.80;99.90;;;;;;4990461;28;20062;-87
2023/05/08 06:17:21;;;;;;;0.10;0.10;;;11.80;99.90;;;;;;4983951;28;20045;-86
2023/05/08 06:19:52;;;;;;;0.10;0.10;;;11.90;99.90;;;;;;4996929;28;20058;-88
2023/05/08 06:22:22;;;;;;;0.17;0.17;;;11.90;99.90;;;;;;4972253;28;20379;-86
2023/05/08 06:24:48;;;;;;;0.20;0.20;;;12.00;99.90;;;;;;4959314;28;20123;-85
2023/05/08 06:27:14;;;;;;;0.10;0.10;;;12.10;99.90;;;;;;4957814;28;20047;-85
2023/05/08 06:29:40;;;;;;;0.10;0.10;;;12.20;99.90;;;;;;4959925;28;20338;-87
2023/05/08 06:32:05;;;;;;;0.13;0.13;;;12.30;99.90;;;;;;4959224;28;20135;-85
2023/05/08 06:34:31;;;;;;;0.20;0.20;;;12.30;99.90;;;;;;4973175;28;20035;-83
2023/05/08 06:36:57;;;;;;;0.17;0.17;;;12.40;99.90;;;;;;4959192;28;20057;-84
2023/05/08 06:39:22;;;;;;;0.10;0.10;;;12.60;99.90;;;;;;4974994;28;20082;-85
2023/05/08 06:41:48;;;;;;;0.20;0.20;;;12.50;99.90;;;;;;4991989;28;20042;-84
2023/05/08 06:44:14;;;;;;;0.10;0.10;;;12.70;99.90;;;;;;4956955;28;20046;-83
2023/05/08 06:46:40;;;;;;;0.20;0.20;;;12.70;99.90;;;;;;4967453;28;20492;-93
2023/05/08 06:49:06;;;;;;;0.20;0.20;;;12.80;99.90;;;;;;4980864;28;20494;-91
2023/05/08 06:51:37;;;;;;;0.20;0.20;;;12.90;99.90;;;;;;4966860;28;20041;-86
2023/05/08 06:54:07;;;;;;;0.10;0.10;;;12.90;99.90;;;;;;4961357;28;20053;-92
2023/05/08 06:56:33;;;;;;;0.10;0.10;;;13.10;99.90;;;;;;4982325;28;20069;-89
2023/05/08 06:58:59;;;;;;;0.20;0.20;;;13.20;99.90;;;;;;4978410;28;20069;-87
2023/05/08 07:01:25;;;;;;;0.10;0.10;;;13.20;99.90;;;;;;4965365;28;20495;-89
2023/05/08 07:03:50;;;;;;;0.20;0.20;;;13.30;99.90;;;;;;4944075;28;20045;-89
2023/05/08 07:06:16;;;;;;;0.20;0.20;;;13.40;99.90;;;;;;4971634;28;20047;-90
2023/05/08 07:08:42;;;;;;;0.10;0.10;;;13.40;99.90;;;;;;4969696;28;20612;-89
2023/05/08 07:11:08;;;;;;;0.10;0.10;;;13.40;99.90;;;;;;4965782;28;20491;-86
2023/05/08 07:13:35;;;;;;;0.20;0.20;;;13.50;99.90;;;;;;4977433;28;20038;-88
2023/05/08 07:16:01;;;;;;;0.10;0.10;;;13.50;99.90;;;;;;4974429;28;20121;-86
2023/05/08 07:18:29;;;;;;;0.20;0.20;;;13.50;99.90;;;;;;4961943;28;20047;-88
2023/05/08 07:20:54;;;;;;;0.20;0.20;;;13.60;99.90;;;;;;4972036;28;20046;-87
2023/05/08 07:23:20;;;;;;;0.10;0.10;;;13.60;99.90;;;;;;4954261;28;20497;-87
2023/05/08 07:25:46;;;;;;;0.20;0.20;;;13.50;99.90;;;;;;4972172;28;20510;-86
2023/05/08 07:28:12;;;;;;;0.20;0.20;;;13.50;99.90;;;;;;4961098;28;20039;-87
2023/05/08 07:30:38;;;;;;;0.10;0.10;;;13.50;99.90;;;;;;4953220;28;20070;-92
2023/05/08 07:33:04;;;;;;;0.20;0.20;;;13.60;99.90;;;;;;4980723;28;20046;-90
2023/05/08 07:35:29;;;;;;;0.10;0.10;;;13.70;99.90;;;;;;4963049;28;20054;-89
2023/05/08 07:37:55;;;;;;;0.20;0.20;;;13.70;99.90;;;;;;4962392;28;20498;-90
2023/05/08 07:40:21;;;;;;;0.20;0.20;;;13.80;99.90;;;;;;4948835;28;20050;-91
2023/05/08 07:42:47;;;;;;;0.10;0.10;;;13.80;99.90;;;;;;4973178;28;20077;-89
2023/05/08 07:45:13;;;;;;;0.20;0.20;;;13.80;99.90;;;;;;4963084;28;20491;-87
2023/05/08 07:47:47;;;;;;;0.10;0.10;;;13.90;99.90;;;;;;4952562;28;20051;-91
2023/05/08 07:50:13;;;;;;;0.17;0.17;;;13.90;99.90;;;;;;4950605;28;20047;-90
2023/05/08 07:52:39;;;;;;;0.10;0.10;;;13.90;99.90;;;;;;4971458;28;20051;-87
2023/05/08 07:55:05;;;;;;;0.10;0.10;;;13.90;99.90;;;;;;4956418;28;20057;-88
2023/05/08 07:57:39;;;;;;;0.10;0.10;;;13.90;99.90;;;;;;4954794;28;20046;-87
2023/05/08 08:00:06;;;;;;;0.10;0.10;;;13.90;99.90;;;;;;4949384;28;20142;-86
2023/05/08 08:02:31;;;;;;;0.10;0.10;;;13.90;99.90;;;;;;4973103;28;20042;-89
2023/05/08 08:04:57;;;;;;;0.10;0.10;;;14.10;99.90;;;;;;4959404;28;20055;-87
2023/05/08 08:07:23;;;;;;;0.10;0.10;;;14.00;99.90;;;;;;4996614;28;20042;-87
2023/05/08 08:09:48;;;;;;;0.10;0.10;;;14.00;99.90;;;;;;4987065;28;20422;-87
2023/05/08 08:12:14;;;;;;;0.20;0.20;;;14.00;99.90;;;;;;4980091;28;20041;-86
2023/05/08 08:14:40;;;;;;;0.10;0.10;;;14.00;99.90;;;;;;4989055;28;20034;-86
2023/05/08 08:17:05;;;;;;;0.20;0.20;;;14.00;99.90;;;;;;4986767;28;20475;-91
2023/05/08 08:19:31;;;;;;;0.10;0.10;;;14.00;99.90;;;;;;4976038;28;20073;-90
2023/05/08 08:21:57;;;;;;;0.10;0.10;;;14.00;99.90;;;;;;4975037;28;20046;-91
2023/05/08 08:24:22;;;;;;;0.20;0.20;;;14.00;99.90;;;;;;4958353;28;20046;-88
2023/05/08 08:26:48;;;;;;;0.17;0.17;;;14.10;99.90;;;;;;4989049;28;20498;-88
2023/05/08 08:29:14;;;;;;;0.20;0.20;;;14.10;99.90;;;;;;4956987;28;20058;-88
2023/05/08 08:31:40;;;;;;;0.10;0.10;;;14.20;99.90;;;;;;4976723;28;20047;-88
2023/05/08 08:34:05;;;;;;;0.10;0.10;;;14.30;99.90;;;;;;4961111;28;20047;-88
2023/05/08 08:36:31;;;;;;;0.10;0.10;;;14.40;99.90;;;;;;4963643;28;20042;-94
2023/05/08 08:38:57;;;;;;;0.10;0.10;;;14.40;99.90;;;;;;4962585;28;20358;-87
2023/05/08 08:41:23;;;;;;;0.10;0.10;;;14.50;99.90;;;;;;4978850;28;20086;-88
2023/05/08 08:43:49;;;;;;;0.10;0.10;;;14.50;99.90;;;;;;4978688;28;20042;-89
2023/05/08 08:46:19;;;;;;;0.20;0.20;;;14.60;99.90;;;;;;4980664;28;20053;-86
2023/05/08 08:48:46;;;;;;;0.10;0.10;;;14.70;99.90;;;;;;4993730;28;20120;-88
2023/05/08 08:51:34;;;;;;;0.20;0.20;;;14.80;99.90;;;;;;4970650;28;20092;-87
2023/05/08 08:54:04;;;;;;;0.10;0.10;;;14.90;99.90;;;;;;5006509;28;20077;-87
2023/05/08 08:56:32;;;;;;;0.20;0.20;;;14.90;99.90;;;;;;5001950;28;20042;-90
2023/05/08 08:58:59;;;;;;;0.20;0.20;;;15.00;99.90;;;;;;4998182;28;20042;-88
2023/05/08 09:01:26;;;;;;;0.10;0.10;;;15.10;99.90;;;;;;4990532;28;20438;-88
2023/05/08 09:03:51;;;;;;;0.20;0.20;;;15.10;99.90;;;;;;4954309;28;20283;-87
2023/05/08 09:06:18;;;;;;;0.20;0.20;;;15.20;99.90;;;;;;4975553;28;20042;-90
2023/05/08 09:08:44;;;;;;;0.20;0.20;;;15.30;99.90;;;;;;4977835;28;20065;-88
2023/05/08 09:11:09;;;;;;;0.20;0.20;;;15.30;99.90;;;;;;4958020;28;20054;-87
2023/05/08 09:13:35;;;;;;;0.20;0.20;;;15.30;99.90;;;;;;4961818;28;20097;-87
2023/05/08 09:16:01;;;;;;;0.20;0.20;;;15.40;99.90;;;;;;4975344;28;20054;-89
2023/05/08 09:18:26;;;;;;;0.20;0.20;;;15.50;99.90;;;;;;4960236;28;20685;-93
2023/05/08 09:20:52;;;;;;;0.20;0.20;;;15.50;99.90;;;;;;4957517;28;20078;-86
2023/05/08 09:23:18;;;;;;;0.10;0.10;;;15.50;99.90;;;;;;4971741;28;20054;-90
2023/05/08 09:25:45;;;;;;;0.20;0.20;;;15.40;99.90;;;;;;4957872;28;20098;-89
2023/05/08 09:28:16;;;;;;;0.20;0.20;;;15.50;99.90;;;;;;4965491;28;20050;-87
2023/05/08 09:30:50;;;;;;;0.20;0.20;;;15.50;99.90;;;;;;4955368;28;20055;-88
2023/05/08 09:33:17;;;;;;;0.17;0.17;;;15.60;99.90;;;;;;4981954;28;20066;-88
2023/05/08 09:35:42;;;;;;;0.20;0.20;;;15.60;99.90;;;;;;4976899;28;20396;-86
2023/05/08 09:38:08;;;;;;;0.20;0.20;;;15.70;99.90;;;;;;4956618;28;20047;-86
2023/05/08 09:40:35;;;;;;;0.15;0.15;;;15.80;99.90;;;;;;4990041;28;20053;-87
2023/05/08 09:43:14;;;;;;;0.10;0.10;;;15.80;99.90;;;;;;4976200;28;20050;-88
2023/05/08 09:45:41;;;;;;;0.20;0.20;;;15.90;99.90;;;;;;4973416;28;20046;-88
2023/05/08 09:48:09;;;;;;;0.17;0.17;;;16.00;99.90;;;;;;4973071;28;20046;-87
2023/05/08 09:50:35;;;;;;;0.17;0.17;;;16.10;99.90;;;;;;4955780;28;20185;-87
2023/05/08 09:53:00;;;;;;;0.20;0.20;;;16.10;99.90;;;;;;4974827;28;20122;-90
2023/05/08 09:55:26;;;;;;;0.10;0.10;;;16.20;99.90;;;;;;4975096;28;20201;-88
2023/05/08 09:57:58;;;;;;;0.30;0.20;;;16.20;99.90;;;;;;4993030;28;20049;-86
2023/05/08 10:00:28;;;;;;;0.13;0.13;;;16.20;99.90;;;;;;4972101;28;20051;-86
2023/05/08 10:02:59;;;;;;;0.10;0.10;;;16.40;99.90;;;;;;4948299;28;20062;-88
2023/05/08 10:05:30;;;;;;;0.20;0.20;;;16.40;99.90;;;;;;4967525;28;20050;-85
2023/05/08 10:08:18;;;;;;;0.20;0.20;;;16.50;99.90;;;;;;4941618;28;20046;-86
2023/05/08 10:10:44;;;;;;;0.20;0.20;;;16.60;99.90;;;;;;4941215;29;20043;-85
2023/05/08 10:13:10;;;;;;;0.15;0.15;;;16.60;99.90;;;;;;4952659;28;20043;-88
2023/05/08 10:15:37;;;;;;;0.20;0.20;;;16.70;99.90;;;;;;4951842;28;20042;-87
2023/05/08 10:18:07;;;;;;;0.10;0.10;;;16.80;99.90;;;;;;4993397;28;20053;-91
2023/05/08 10:20:43;;;;;;;0.20;0.20;;;16.80;99.90;;;;;;4984160;28;20046;-85
2023/05/08 10:23:13;;;;;;;0.20;0.20;;;16.90;99.90;;;;;;4945851;28;20038;-85
2023/05/08 10:25:44;;;;;;;0.20;0.20;;;16.90;99.90;;;;;;4947414;28;20124;-84
2023/05/08 10:28:36;;;;;;;;;;;17.00;99.90;;;;;;4947141;28;20078;-86
2023/05/08 10:31:04;;;;;;;0.10;0.10;;;17.00;99.90;;;;;;4953659;28;19922;-83
2023/05/08 10:33:32;;;;;;;0.10;0.10;;;17.20;99.90;;;;;;4955177;28;20125;-86
2023/05/08 10:35:59;;;;;;;0.20;0.20;;;17.20;99.90;;;;;;4986366;28;20042;-87
2023/05/08 10:38:26;;;;;;;0.10;0.10;;;17.30;99.90;;;;;;4988843;28;20096;-86
2023/05/08 10:40:56;;;;;;;0.20;0.20;;;17.40;99.90;;;;;;4948394;28;20046;-87
2023/05/08 10:43:24;;;;;;;0.20;0.20;;;17.50;99.90;;;;;;4959873;28;20070;-86
2023/05/08 10:45:54;;;;;;;0.10;0.10;;;17.60;99.90;;;;;;4969481;28;20467;-86
2023/05/08 10:48:42;;;;;;;0.10;0.10;;;17.70;99.90;;;;;;4974058;28;20047;-88
2023/05/08 10:51:12;;;;;;;0.10;0.10;;;17.80;99.90;;;;;;4981670;28;20051;-88
2023/05/08 10:53:54;;;;;;;0.20;0.20;;;17.90;99.90;;;;;;4954734;28;20552;-90
2023/05/08 10:56:27;;;;;;;0.10;0.10;;;18.00;99.90;;;;;;4973473;28;20051;-87
2023/05/08 10:59:02;;;;;;;0.10;0.10;;;18.20;99.90;;;;;;4969190;28;21926;-89
2023/05/08 11:01:28;;;;;;;0.15;0.15;;;18.30;99.90;;;;;;4956445;28;20590;-88
2023/05/08 11:03:54;;;;;;;0.13;0.13;;;18.40;99.90;;;;;;4966055;28;20121;-83
2023/05/08 11:06:47;;;;;;;0.10;0.10;;;18.50;99.90;;;;;;4959958;28;20078;-87
2023/05/08 11:09:20;;;;;;;0.20;0.20;;;18.60;99.90;;;;;;4970861;28;20136;-89
2023/05/08 11:11:58;;;;;;;0.10;0.10;;;18.80;99.90;;;;;;4972878;28;20409;-87
2023/05/08 11:14:24;;;;;;;0.10;0.10;;;18.90;99.90;;;;;;4957368;28;20053;-93
2023/05/08 11:16:53;;;;;;;0.10;0.10;;;19.00;99.90;;;;;;4973853;28;20082;-87
2023/05/08 11:19:25;;;;;;;0.20;0.20;;;19.10;99.90;;;;;;4965993;28;20070;-89
2023/05/08 11:22:20;;;;;;;0.10;0.10;;;19.30;99.90;;;;;;4953324;28;20039;-88
2023/05/08 11:24:47;;;;;;;0.20;0.20;;;19.30;99.90;;;;;;4967180;28;20169;-87
2023/05/08 11:27:14;;;;;;;0.20;0.20;;;19.50;99.90;;;;;;4948800;28;20047;-86
2023/05/08 11:29:40;;;;;;;0.10;0.10;;;19.60;99.90;;;;;;4972756;28;20049;-89
2023/05/08 11:32:06;;;;;;;0.20;0.20;;;19.70;99.90;;;;;;4976404;28;20090;-88
2023/05/08 11:34:41;;;;;;;0.17;0.17;;;19.90;99.90;;;;;;4952921;28;20137;-92
2023/05/08 11:37:23;;;;;;;0.20;0.20;;;20.00;99.90;;;;;;4955947;28;20395;-88
2023/05/08 11:39:49;;;;;;;0.20;0.20;;;20.20;99.90;;;;;;4966065;28;20098;-87
2023/05/08 11:42:24;;;;;;;0.20;0.20;;;20.30;99.90;;;;;;4973157;28;20284;-89
2023/05/08 11:45:13;;;;;;;0.20;0.20;;;20.50;99.90;;;;;;4953993;28;20530;-90
2023/05/08 11:47:41;;;;;;;0.20;0.20;;;20.60;99.90;;;;;;4955417;28;20410;-91
2023/05/08 11:50:11;;;;;;;0.20;0.20;;;20.70;99.90;;;;;;4971357;28;20499;-89
2023/05/08 11:52:39;;;;;;;0.20;0.20;;;20.90;99.90;;;;;;4970074;28;20074;-89
2023/05/08 11:55:07;;;;;;;0.20;0.20;;;21.00;99.90;;;;;;4971963;28;20043;-87
2023/05/08 11:57:33;;;;;;;0.20;0.20;;;21.10;99.90;;;;;;4971929;28;20047;-87
2023/05/08 12:00:08;;;;;;;0.20;0.20;;;21.30;99.90;;;;;;4956933;28;20411;-87
2023/05/08 12:02:46;;;;;;;0.20;0.20;;;21.40;99.90;;;;;;4951200;28;20487;-90
2023/05/08 12:05:11;;;;;;;0.20;0.20;;;21.50;99.90;;;;;;4947458;28;20042;-93
2023/05/08 12:07:47;;;;;;;0.20;0.20;;;21.60;99.90;;;;;;4970346;28;20070;-92
2023/05/08 12:10:13;;;;;;;0.20;0.20;;;21.70;99.90;;;;;;4957807;28;20074;-88
2023/05/08 12:12:40;;;;;;;0.15;0.15;;;21.80;99.90;;;;;;4953928;28;20047;-87
2023/05/08 12:15:12;;;;;;;0.20;0.20;;;21.90;99.90;;;;;;4969452;28;20174;-86
2023/05/08 12:17:37;;;;;;;;;;;22.10;99.90;;;;;;4980489;28;20529;-85
2023/05/08 12:20:16;;;;;;;0.20;0.20;;;22.20;99.90;;;;;;4975083;28;20264;-88
2023/05/08 12:22:50;;;;;;;0.20;0.20;;;22.30;99.90;;;;;;4965965;28;20134;-87
2023/05/08 12:25:17;;;;;;;0.20;0.20;;;22.50;99.90;;;;;;4984463;28;20035;-88
2023/05/08 12:27:43;;;;;;;0.20;0.20;;;22.70;99.90;;;;;;4958141;28;20065;-86
2023/05/08 12:30:11;;;;;;;0.20;0.20;;;22.90;99.90;;;;;;4952438;28;20046;-89
2023/05/08 12:32:39;;;;;;;2.65;0.55;;;23.10;99.90;;;;;;4951464;28;20467;-86
2023/05/08 12:35:07;;;;;;;0.20;0.20;;;23.20;99.90;;;;;;4969032;28;20050;-89
2023/05/08 12:37:34;;;;;;;0.20;0.20;;;23.20;99.90;;;;;;4947057;28;20113;-91
2023/05/08 12:40:00;;;;;;;0.30;0.30;;;23.10;99.90;;;;;;4968887;28;20069;-86
2023/05/08 12:42:49;;;;;;;0.20;0.20;;;23.10;99.90;;;;;;4952376;28;20495;-85
2023/05/08 12:45:18;;;;;;;0.30;0.30;;;23.10;99.90;;;;;;4975398;28;20507;-87
2023/05/08 12:47:45;;;;;;;0.20;0.20;;;23.00;99.90;;;;;;4986890;28;20046;-84
2023/05/08 12:50:14;;;;;;;0.20;0.20;;;23.00;99.90;;;;;;4960393;28;20074;-85
2023/05/08 12:52:40;;;;;;;0.20;0.20;;;23.10;99.90;;;;;;4955532;28;20458;-86
2023/05/08 12:55:22;;;;;;;0.20;0.20;;;23.20;99.90;;;;;;4967977;28;20073;-87
2023/05/08 12:58:11;;;;;;;0.20;0.20;;;23.40;99.90;;;;;;4978165;28;20050;-84
2023/05/08 13:00:45;;;;;;;0.20;0.20;;;23.50;99.90;;;;;;4946473;28;20043;-86